sensor_id;sensor_type;location;lat;lon;timestamp;P1;durP1;ratioP1;P2;durP2;ratioP2
65130;SDS011;51709;54.912;8.316;2024-03-08T00:00:05;18.92;;;11.30;;
65130;SDS011;51709;54.912;8.316;2024-03-08T00:05:30;26.38;;;11.95;;
65130;SDS011;51709;54.912;8.316;2024-03-08T00:10:51;23.90;;;11.68;;
65130;SDS011;51709;54.912;8.316;2024-03-08T00:16:12;21.38;;;11.63;;
65130;SDS011;51709;54.912;8.316;2024-03-08T00:21:33;20.08;;;11.25;;
65130;SDS011;51709;54.912;8.316;2024-03-08T00:26:53;17.23;;;10.73;;
65130;SDS011;51709;54.912;8.316;2024-03-08T00:32:14;23.33;;;12.02;;
65130;SDS011;51709;54.912;8.316;2024-03-08T00:37:35;19.13;;;9.98;;
65130;SDS011;51709;54.912;8.316;2024-03-08T00:42:56;24.63;;;11.25;;
65130;SDS011;51709;54.912;8.316;2024-03-08T00:48:16;15.18;;;9.93;;
65130;SDS011;51709;54.912;8.316;2024-03-08T00:53:37;20.13;;;10.68;;
65130;SDS011;51709;54.912;8.316;2024-03-08T00:58:58;25.50;;;9.88;;
65130;SDS011;51709;54.912;8.316;2024-03-08T01:04:20;21.50;;;10.88;;
65130;SDS011;51709;54.912;8.316;2024-03-08T01:09:41;21.15;;;12.13;;
65130;SDS011;51709;54.912;8.316;2024-03-08T01:15:02;19.65;;;9.75;;
65130;SDS011;51709;54.912;8.316;2024-03-08T01:20:23;17.55;;;9.52;;
65130;SDS011;51709;54.912;8.316;2024-03-08T01:25:45;18.90;;;9.82;;
65130;SDS011;51709;54.912;8.316;2024-03-08T01:31:06;21.52;;;10.80;;
65130;SDS011;51709;54.912;8.316;2024-03-08T01:36:26;16.73;;;8.57;;
65130;SDS011;51709;54.912;8.316;2024-03-08T01:41:47;17.65;;;10.13;;
65130;SDS011;51709;54.912;8.316;2024-03-08T01:47:08;22.88;;;11.23;;
65130;SDS011;51709;54.912;8.316;2024-03-08T01:52:29;18.08;;;9.80;;
65130;SDS011;51709;54.912;8.316;2024-03-08T01:57:51;21.40;;;9.40;;
65130;SDS011;51709;54.912;8.316;2024-03-08T02:03:12;16.63;;;10.63;;
65130;SDS011;51709;54.912;8.316;2024-03-08T02:08:33;25.45;;;11.20;;
65130;SDS011;51709;54.912;8.316;2024-03-08T02:13:55;19.80;;;10.65;;
65130;SDS011;51709;54.912;8.316;2024-03-08T02:19:15;19.02;;;9.50;;
65130;SDS011;51709;54.912;8.316;2024-03-08T02:24:36;26.30;;;11.73;;
65130;SDS011;51709;54.912;8.316;2024-03-08T02:29:57;21.05;;;9.10;;
65130;SDS011;51709;54.912;8.316;2024-03-08T02:35:17;19.08;;;9.63;;
65130;SDS011;51709;54.912;8.316;2024-03-08T02:40:38;17.05;;;9.10;;
65130;SDS011;51709;54.912;8.316;2024-03-08T02:45:58;19.80;;;10.07;;
65130;SDS011;51709;54.912;8.316;2024-03-08T02:51:19;24.65;;;11.00;;
65130;SDS011;51709;54.912;8.316;2024-03-08T02:56:40;25.05;;;10.45;;
65130;SDS011;51709;54.912;8.316;2024-03-08T03:02:01;18.27;;;9.02;;
65130;SDS011;51709;54.912;8.316;2024-03-08T03:07:22;17.23;;;9.30;;
65130;SDS011;51709;54.912;8.316;2024-03-08T03:12:43;19.65;;;8.95;;
65130;SDS011;51709;54.912;8.316;2024-03-08T03:18:04;19.17;;;9.25;;
65130;SDS011;51709;54.912;8.316;2024-03-08T03:23:28;16.58;;;8.13;;
65130;SDS011;51709;54.912;8.316;2024-03-08T03:28:53;17.02;;;8.70;;
65130;SDS011;51709;54.912;8.316;2024-03-08T03:34:14;21.65;;;9.40;;
65130;SDS011;51709;54.912;8.316;2024-03-08T03:39:35;14.98;;;7.75;;
65130;SDS011;51709;54.912;8.316;2024-03-08T03:45:01;14.52;;;8.70;;
65130;SDS011;51709;54.912;8.316;2024-03-08T03:50:24;15.35;;;8.25;;
65130;SDS011;51709;54.912;8.316;2024-03-08T03:55:44;16.95;;;9.55;;
65130;SDS011;51709;54.912;8.316;2024-03-08T04:01:06;18.23;;;8.27;;
65130;SDS011;51709;54.912;8.316;2024-03-08T04:06:26;15.90;;;8.25;;
65130;SDS011;51709;54.912;8.316;2024-03-08T04:11:47;15.30;;;9.68;;
65130;SDS011;51709;54.912;8.316;2024-03-08T04:17:08;24.75;;;9.18;;
65130;SDS011;51709;54.912;8.316;2024-03-08T04:22:29;16.73;;;8.43;;
65130;SDS011;51709;54.912;8.316;2024-03-08T04:27:49;20.15;;;9.20;;
65130;SDS011;51709;54.912;8.316;2024-03-08T04:33:10;20.40;;;8.93;;
65130;SDS011;51709;54.912;8.316;2024-03-08T04:38:30;16.35;;;9.65;;
65130;SDS011;51709;54.912;8.316;2024-03-08T04:43:51;20.23;;;9.32;;
65130;SDS011;51709;54.912;8.316;2024-03-08T04:49:12;19.40;;;9.65;;
65130;SDS011;51709;54.912;8.316;2024-03-08T04:54:33;18.90;;;9.65;;
65130;SDS011;51709;54.912;8.316;2024-03-08T04:59:54;17.70;;;9.63;;
65130;SDS011;51709;54.912;8.316;2024-03-08T05:05:15;22.95;;;10.13;;
65130;SDS011;51709;54.912;8.316;2024-03-08T05:10:35;21.15;;;11.75;;
65130;SDS011;51709;54.912;8.316;2024-03-08T05:15:56;20.45;;;10.68;;
65130;SDS011;51709;54.912;8.316;2024-03-08T05:21:18;21.48;;;11.35;;
65130;SDS011;51709;54.912;8.316;2024-03-08T05:26:40;24.45;;;12.95;;
65130;SDS011;51709;54.912;8.316;2024-03-08T05:32:01;18.58;;;10.80;;
65130;SDS011;51709;54.912;8.316;2024-03-08T05:37:23;29.58;;;13.00;;
65130;SDS011;51709;54.912;8.316;2024-03-08T05:42:43;27.08;;;12.38;;
65130;SDS011;51709;54.912;8.316;2024-03-08T05:48:04;21.55;;;11.40;;
65130;SDS011;51709;54.912;8.316;2024-03-08T05:53:25;27.02;;;12.82;;
65130;SDS011;51709;54.912;8.316;2024-03-08T05:58:47;20.08;;;12.48;;
65130;SDS011;51709;54.912;8.316;2024-03-08T06:04:10;23.90;;;11.82;;
65130;SDS011;51709;54.912;8.316;2024-03-08T06:14:55;23.70;;;12.40;;
65130;SDS011;51709;54.912;8.316;2024-03-08T06:20:15;26.13;;;12.20;;
65130;SDS011;51709;54.912;8.316;2024-03-08T06:25:36;28.25;;;14.48;;
65130;SDS011;51709;54.912;8.316;2024-03-08T06:30:56;28.23;;;13.93;;
65130;SDS011;51709;54.912;8.316;2024-03-08T06:36:18;27.80;;;14.73;;
65130;SDS011;51709;54.912;8.316;2024-03-08T06:41:45;24.40;;;14.65;;
65130;SDS011;51709;54.912;8.316;2024-03-08T06:47:06;35.28;;;16.05;;
65130;SDS011;51709;54.912;8.316;2024-03-08T06:52:27;26.10;;;15.63;;
65130;SDS011;51709;54.912;8.316;2024-03-08T06:57:48;35.97;;;17.25;;
65130;SDS011;51709;54.912;8.316;2024-03-08T07:03:09;29.35;;;16.92;;
65130;SDS011;51709;54.912;8.316;2024-03-08T07:08:32;28.53;;;16.87;;
65130;SDS011;51709;54.912;8.316;2024-03-08T07:13:53;41.55;;;17.52;;
65130;SDS011;51709;54.912;8.316;2024-03-08T07:19:14;33.78;;;16.85;;
65130;SDS011;51709;54.912;8.316;2024-03-08T07:24:36;35.70;;;17.73;;
65130;SDS011;51709;54.912;8.316;2024-03-08T07:30:14;42.03;;;18.73;;
65130;SDS011;51709;54.912;8.316;2024-03-08T07:35:54;29.48;;;15.82;;
65130;SDS011;51709;54.912;8.316;2024-03-08T07:41:15;32.53;;;17.30;;
65130;SDS011;51709;54.912;8.316;2024-03-08T07:46:35;39.08;;;17.55;;
65130;SDS011;51709;54.912;8.316;2024-03-08T07:51:57;32.83;;;16.85;;
65130;SDS011;51709;54.912;8.316;2024-03-08T07:57:18;40.88;;;17.38;;
65130;SDS011;51709;54.912;8.316;2024-03-08T08:02:38;39.08;;;18.27;;
65130;SDS011;51709;54.912;8.316;2024-03-08T08:08:00;31.58;;;17.40;;
65130;SDS011;51709;54.912;8.316;2024-03-08T08:13:20;35.42;;;17.52;;
65130;SDS011;51709;54.912;8.316;2024-03-08T08:18:41;31.27;;;16.20;;
65130;SDS011;51709;54.912;8.316;2024-03-08T08:24:05;28.52;;;16.08;;
65130;SDS011;51709;54.912;8.316;2024-03-08T08:34:47;28.25;;;15.30;;
65130;SDS011;51709;54.912;8.316;2024-03-08T08:40:08;35.55;;;15.35;;
65130;SDS011;51709;54.912;8.316;2024-03-08T08:45:30;38.95;;;17.83;;
65130;SDS011;51709;54.912;8.316;2024-03-08T08:50:52;33.33;;;16.73;;
65130;SDS011;51709;54.912;8.316;2024-03-08T08:56:12;33.40;;;16.45;;
65130;SDS011;51709;54.912;8.316;2024-03-08T09:01:34;29.08;;;15.65;;
65130;SDS011;51709;54.912;8.316;2024-03-08T09:06:54;27.10;;;15.15;;
65130;SDS011;51709;54.912;8.316;2024-03-08T09:12:15;26.10;;;15.52;;
65130;SDS011;51709;54.912;8.316;2024-03-08T09:17:36;32.53;;;15.10;;
65130;SDS011;51709;54.912;8.316;2024-03-08T09:22:59;22.13;;;13.90;;
65130;SDS011;51709;54.912;8.316;2024-03-08T09:28:20;33.17;;;15.18;;
65130;SDS011;51709;54.912;8.316;2024-03-08T09:33:42;28.17;;;14.68;;
65130;SDS011;51709;54.912;8.316;2024-03-08T09:39:03;30.63;;;15.82;;
65130;SDS011;51709;54.912;8.316;2024-03-08T09:44:23;27.63;;;16.58;;
65130;SDS011;51709;54.912;8.316;2024-03-08T09:49:47;30.70;;;15.05;;
65130;SDS011;51709;54.912;8.316;2024-03-08T09:55:09;29.83;;;16.27;;
65130;SDS011;51709;54.912;8.316;2024-03-08T10:00:33;27.88;;;16.63;;
65130;SDS011;51709;54.912;8.316;2024-03-08T10:05:55;30.45;;;16.80;;
65130;SDS011;51709;54.912;8.316;2024-03-08T10:11:20;24.63;;;14.38;;
65130;SDS011;51709;54.912;8.316;2024-03-08T10:16:40;26.55;;;15.52;;
65130;SDS011;51709;54.912;8.316;2024-03-08T10:22:01;25.50;;;15.40;;
65130;SDS011;51709;54.912;8.316;2024-03-08T10:27:24;24.17;;;15.70;;
65130;SDS011;51709;54.912;8.316;2024-03-08T10:32:47;25.15;;;15.05;;
65130;SDS011;51709;54.912;8.316;2024-03-08T10:38:08;21.05;;;13.68;;
65130;SDS011;51709;54.912;8.316;2024-03-08T10:49:16;15.35;;;11.32;;
65130;SDS011;51709;54.912;8.316;2024-03-08T10:54:39;14.98;;;10.93;;
65130;SDS011;51709;54.912;8.316;2024-03-08T11:00:06;14.63;;;11.13;;
65130;SDS011;51709;54.912;8.316;2024-03-08T11:05:37;14.57;;;11.48;;
65130;SDS011;51709;54.912;8.316;2024-03-08T11:11:03;14.60;;;9.60;;
65130;SDS011;51709;54.912;8.316;2024-03-08T11:21:45;14.50;;;10.15;;
65130;SDS011;51709;54.912;8.316;2024-03-08T11:27:06;12.75;;;10.80;;
65130;SDS011;51709;54.912;8.316;2024-03-08T11:32:27;16.50;;;9.70;;
65130;SDS011;51709;54.912;8.316;2024-03-08T11:37:49;15.02;;;11.20;;
65130;SDS011;51709;54.912;8.316;2024-03-08T11:43:11;16.20;;;10.73;;
65130;SDS011;51709;54.912;8.316;2024-03-08T11:48:32;12.77;;;9.52;;
65130;SDS011;51709;54.912;8.316;2024-03-08T11:53:53;12.98;;;10.13;;
65130;SDS011;51709;54.912;8.316;2024-03-08T11:59:13;12.85;;;10.25;;
65130;SDS011;51709;54.912;8.316;2024-03-08T12:04:35;14.57;;;10.95;;
65130;SDS011;51709;54.912;8.316;2024-03-08T12:10:17;13.77;;;10.73;;
65130;SDS011;51709;54.912;8.316;2024-03-08T12:15:41;15.82;;;11.38;;
65130;SDS011;51709;54.912;8.316;2024-03-08T12:21:05;11.82;;;10.57;;
65130;SDS011;51709;54.912;8.316;2024-03-08T12:26:30;12.20;;;10.80;;
65130;SDS011;51709;54.912;8.316;2024-03-08T12:31:53;15.35;;;11.60;;
65130;SDS011;51709;54.912;8.316;2024-03-08T12:37:21;14.88;;;11.15;;
65130;SDS011;51709;54.912;8.316;2024-03-08T12:42:44;14.20;;;10.75;;
65130;SDS011;51709;54.912;8.316;2024-03-08T12:48:12;11.13;;;10.00;;
65130;SDS011;51709;54.912;8.316;2024-03-08T12:53:35;12.15;;;9.48;;
65130;SDS011;51709;54.912;8.316;2024-03-08T12:58:56;12.77;;;10.00;;
65130;SDS011;51709;54.912;8.316;2024-03-08T13:04:17;11.55;;;9.93;;
65130;SDS011;51709;54.912;8.316;2024-03-08T13:09:39;12.65;;;10.32;;
65130;SDS011;51709;54.912;8.316;2024-03-08T13:14:59;12.10;;;10.20;;
65130;SDS011;51709;54.912;8.316;2024-03-08T13:20:20;14.52;;;10.07;;
65130;SDS011;51709;54.912;8.316;2024-03-08T13:25:53;15.27;;;10.88;;
65130;SDS011;51709;54.912;8.316;2024-03-08T13:31:14;13.55;;;10.90;;
65130;SDS011;51709;54.912;8.316;2024-03-08T13:36:35;15.85;;;11.27;;
65130;SDS011;51709;54.912;8.316;2024-03-08T13:42:02;12.73;;;10.95;;
65130;SDS011;51709;54.912;8.316;2024-03-08T13:47:25;14.27;;;11.25;;
65130;SDS011;51709;54.912;8.316;2024-03-08T13:52:46;17.65;;;10.88;;
65130;SDS011;51709;54.912;8.316;2024-03-08T13:58:14;14.50;;;10.90;;
65130;SDS011;51709;54.912;8.316;2024-03-08T14:03:34;12.30;;;9.52;;
65130;SDS011;51709;54.912;8.316;2024-03-08T14:08:56;15.02;;;11.25;;
65130;SDS011;51709;54.912;8.316;2024-03-08T14:14:18;14.10;;;10.90;;
65130;SDS011;51709;54.912;8.316;2024-03-08T14:19:38;15.82;;;11.77;;
65130;SDS011;51709;54.912;8.316;2024-03-08T14:24:59;18.98;;;11.90;;
65130;SDS011;51709;54.912;8.316;2024-03-08T14:30:23;18.40;;;11.30;;
65130;SDS011;51709;54.912;8.316;2024-03-08T14:35:55;17.77;;;11.75;;
65130;SDS011;51709;54.912;8.316;2024-03-08T14:41:16;23.45;;;12.23;;
65130;SDS011;51709;54.912;8.316;2024-03-08T14:46:37;23.13;;;12.02;;
65130;SDS011;51709;54.912;8.316;2024-03-08T14:51:58;28.27;;;12.30;;
65130;SDS011;51709;54.912;8.316;2024-03-08T14:57:19;18.10;;;11.38;;
65130;SDS011;51709;54.912;8.316;2024-03-08T15:02:40;25.48;;;12.43;;
65130;SDS011;51709;54.912;8.316;2024-03-08T15:08:00;24.85;;;12.77;;
65130;SDS011;51709;54.912;8.316;2024-03-08T15:13:21;20.13;;;11.75;;
65130;SDS011;51709;54.912;8.316;2024-03-08T15:18:43;23.63;;;12.73;;
65130;SDS011;51709;54.912;8.316;2024-03-08T15:24:11;18.63;;;11.65;;
65130;SDS011;51709;54.912;8.316;2024-03-08T15:29:35;18.20;;;12.32;;
65130;SDS011;51709;54.912;8.316;2024-03-08T15:34:56;19.98;;;11.85;;
65130;SDS011;51709;54.912;8.316;2024-03-08T15:40:18;19.80;;;12.50;;
65130;SDS011;51709;54.912;8.316;2024-03-08T15:45:42;17.40;;;10.68;;
65130;SDS011;51709;54.912;8.316;2024-03-08T15:51:03;14.40;;;9.65;;
65130;SDS011;51709;54.912;8.316;2024-03-08T15:56:25;17.67;;;10.70;;
65130;SDS011;51709;54.912;8.316;2024-03-08T16:01:46;20.50;;;12.18;;
65130;SDS011;51709;54.912;8.316;2024-03-08T16:07:12;20.27;;;10.85;;
65130;SDS011;51709;54.912;8.316;2024-03-08T16:12:35;22.48;;;13.25;;
65130;SDS011;51709;54.912;8.316;2024-03-08T16:17:57;23.65;;;13.48;;
65130;SDS011;51709;54.912;8.316;2024-03-08T16:23:17;26.50;;;11.88;;
65130;SDS011;51709;54.912;8.316;2024-03-08T16:28:38;21.85;;;11.57;;
65130;SDS011;51709;54.912;8.316;2024-03-08T16:34:00;18.05;;;11.63;;
65130;SDS011;51709;54.912;8.316;2024-03-08T16:39:21;18.73;;;12.68;;
65130;SDS011;51709;54.912;8.316;2024-03-08T16:44:41;20.73;;;12.63;;
65130;SDS011;51709;54.912;8.316;2024-03-08T16:50:02;20.48;;;10.73;;
65130;SDS011;51709;54.912;8.316;2024-03-08T16:55:25;20.87;;;12.27;;
65130;SDS011;51709;54.912;8.316;2024-03-08T17:00:46;19.88;;;11.43;;
65130;SDS011;51709;54.912;8.316;2024-03-08T17:06:08;20.02;;;11.75;;
65130;SDS011;51709;54.912;8.316;2024-03-08T17:11:29;17.13;;;10.77;;
65130;SDS011;51709;54.912;8.316;2024-03-08T17:16:50;20.17;;;11.02;;
65130;SDS011;51709;54.912;8.316;2024-03-08T17:22:12;17.13;;;10.88;;
65130;SDS011;51709;54.912;8.316;2024-03-08T17:27:32;20.80;;;11.05;;
65130;SDS011;51709;54.912;8.316;2024-03-08T17:32:56;16.83;;;10.73;;
65130;SDS011;51709;54.912;8.316;2024-03-08T17:38:20;21.25;;;12.20;;
65130;SDS011;51709;54.912;8.316;2024-03-08T17:43:45;20.42;;;11.80;;
65130;SDS011;51709;54.912;8.316;2024-03-08T17:49:06;22.67;;;12.20;;
65130;SDS011;51709;54.912;8.316;2024-03-08T17:54:27;22.52;;;11.70;;
65130;SDS011;51709;54.912;8.316;2024-03-08T17:59:49;24.98;;;12.35;;
65130;SDS011;51709;54.912;8.316;2024-03-08T18:05:09;24.27;;;13.23;;
65130;SDS011;51709;54.912;8.316;2024-03-08T18:10:33;17.98;;;9.60;;
65130;SDS011;51709;54.912;8.316;2024-03-08T18:15:54;34.40;;;13.32;;
65130;SDS011;51709;54.912;8.316;2024-03-08T18:21:16;22.52;;;11.98;;
65130;SDS011;51709;54.912;8.316;2024-03-08T18:26:37;22.30;;;13.75;;
65130;SDS011;51709;54.912;8.316;2024-03-08T18:31:57;27.95;;;13.80;;
65130;SDS011;51709;54.912;8.316;2024-03-08T18:37:19;28.98;;;14.90;;
65130;SDS011;51709;54.912;8.316;2024-03-08T18:42:39;25.42;;;14.00;;
65130;SDS011;51709;54.912;8.316;2024-03-08T18:48:00;22.45;;;13.13;;
65130;SDS011;51709;54.912;8.316;2024-03-08T18:53:21;30.70;;;14.50;;
65130;SDS011;51709;54.912;8.316;2024-03-08T18:58:43;27.80;;;14.15;;
65130;SDS011;51709;54.912;8.316;2024-03-08T19:04:06;25.55;;;13.60;;
65130;SDS011;51709;54.912;8.316;2024-03-08T19:09:26;25.88;;;14.18;;
65130;SDS011;51709;54.912;8.316;2024-03-08T19:14:47;22.42;;;12.85;;
65130;SDS011;51709;54.912;8.316;2024-03-08T19:20:11;35.27;;;16.03;;
65130;SDS011;51709;54.912;8.316;2024-03-08T19:25:37;27.40;;;14.40;;
65130;SDS011;51709;54.912;8.316;2024-03-08T19:31:02;27.33;;;13.60;;
65130;SDS011;51709;54.912;8.316;2024-03-08T19:36:22;29.52;;;14.38;;
65130;SDS011;51709;54.912;8.316;2024-03-08T19:41:43;31.58;;;14.38;;
65130;SDS011;51709;54.912;8.316;2024-03-08T19:47:04;29.50;;;15.27;;
65130;SDS011;51709;54.912;8.316;2024-03-08T19:52:28;33.50;;;15.13;;
65130;SDS011;51709;54.912;8.316;2024-03-08T19:57:49;28.33;;;14.20;;
65130;SDS011;51709;54.912;8.316;2024-03-08T20:03:18;27.27;;;15.68;;
65130;SDS011;51709;54.912;8.316;2024-03-08T20:08:43;29.80;;;16.67;;
65130;SDS011;51709;54.912;8.316;2024-03-08T20:14:04;31.58;;;17.20;;
65130;SDS011;51709;54.912;8.316;2024-03-08T20:19:26;33.78;;;16.13;;
65130;SDS011;51709;54.912;8.316;2024-03-08T20:24:49;33.50;;;16.55;;
65130;SDS011;51709;54.912;8.316;2024-03-08T20:30:11;37.90;;;16.77;;
65130;SDS011;51709;54.912;8.316;2024-03-08T20:35:34;34.20;;;17.65;;
65130;SDS011;51709;54.912;8.316;2024-03-08T20:40:55;32.38;;;16.67;;
65130;SDS011;51709;54.912;8.316;2024-03-08T20:46:17;35.22;;;16.65;;
65130;SDS011;51709;54.912;8.316;2024-03-08T20:51:39;39.45;;;19.23;;
65130;SDS011;51709;54.912;8.316;2024-03-08T20:57:01;33.85;;;17.70;;
65130;SDS011;51709;54.912;8.316;2024-03-08T21:02:22;29.83;;;15.77;;
65130;SDS011;51709;54.912;8.316;2024-03-08T21:07:43;39.58;;;19.42;;
65130;SDS011;51709;54.912;8.316;2024-03-08T21:13:07;41.65;;;21.13;;
65130;SDS011;51709;54.912;8.316;2024-03-08T21:18:30;32.17;;;16.97;;
65130;SDS011;51709;54.912;8.316;2024-03-08T21:23:51;33.00;;;19.02;;
65130;SDS011;51709;54.912;8.316;2024-03-08T21:29:14;31.70;;;17.15;;
65130;SDS011;51709;54.912;8.316;2024-03-08T21:34:38;33.22;;;18.58;;
65130;SDS011;51709;54.912;8.316;2024-03-08T21:39:59;38.15;;;17.40;;
65130;SDS011;51709;54.912;8.316;2024-03-08T21:45:20;26.60;;;14.50;;
65130;SDS011;51709;54.912;8.316;2024-03-08T21:50:50;41.25;;;19.33;;
65130;SDS011;51709;54.912;8.316;2024-03-08T21:56:11;41.47;;;18.20;;
65130;SDS011;51709;54.912;8.316;2024-03-08T22:01:33;29.00;;;15.38;;
65130;SDS011;51709;54.912;8.316;2024-03-08T22:06:55;29.15;;;15.20;;
65130;SDS011;51709;54.912;8.316;2024-03-08T22:12:16;32.45;;;17.45;;
65130;SDS011;51709;54.912;8.316;2024-03-08T22:17:37;34.53;;;17.70;;
65130;SDS011;51709;54.912;8.316;2024-03-08T22:22:58;32.35;;;17.95;;
65130;SDS011;51709;54.912;8.316;2024-03-08T22:28:20;37.30;;;17.30;;
65130;SDS011;51709;54.912;8.316;2024-03-08T22:33:46;32.95;;;17.98;;
65130;SDS011;51709;54.912;8.316;2024-03-08T22:39:07;38.03;;;16.70;;
65130;SDS011;51709;54.912;8.316;2024-03-08T22:44:31;33.20;;;15.43;;
65130;SDS011;51709;54.912;8.316;2024-03-08T22:49:55;39.60;;;16.80;;
65130;SDS011;51709;54.912;8.316;2024-03-08T22:55:16;28.55;;;15.55;;
65130;SDS011;51709;54.912;8.316;2024-03-08T23:00:42;29.45;;;16.98;;
65130;SDS011;51709;54.912;8.316;2024-03-08T23:06:03;37.72;;;17.17;;
65130;SDS011;51709;54.912;8.316;2024-03-08T23:11:24;36.65;;;18.63;;
65130;SDS011;51709;54.912;8.316;2024-03-08T23:16:46;39.80;;;16.63;;
65130;SDS011;51709;54.912;8.316;2024-03-08T23:22:10;41.20;;;17.95;;
65130;SDS011;51709;54.912;8.316;2024-03-08T23:27:31;36.35;;;17.90;;
65130;SDS011;51709;54.912;8.316;2024-03-08T23:32:52;39.80;;;19.40;;
65130;SDS011;51709;54.912;8.316;2024-03-08T23:38:18;38.08;;;17.00;;
65130;SDS011;51709;54.912;8.316;2024-03-08T23:43:38;36.83;;;17.75;;
65130;SDS011;51709;54.912;8.316;2024-03-08T23:49:01;32.85;;;18.27;;
65130;SDS011;51709;54.912;8.316;2024-03-08T23:54:26;40.38;;;17.02;;
65130;SDS011;51709;54.912;8.316;2024-03-08T23:59:47;42.15;;;18.05;;
